Weather at Helsinki Vantaa Airport

Public forecast

Using degrees Celsius for public forecast. Weather courtesy of forecast.io.

Current aviation weather report (METAR) for Helsinki Vantaa Airport

Retrieved 2022/08/09 16:50 UTC (20 minutes ago):

EFHK 091650Z 19009KT CAVOK 21/10 Q1026 NOSIG

Aviation forecast (TAF) for Helsinki Vantaa Airport

Retrieved 2022/08/09 15:00 UTC (2 hours ago):

TAF EFHK 091438Z 0915/1015 18010KT CAVOK BECMG 0919/0921 28003KT BECMG 1007/1009 22010KT